createdAt,value
2022-08-26T00:01:10.421Z,19.63
2022-08-26T00:03:36.929Z,23.23
2022-08-26T00:06:03.457Z,19.40
2022-08-26T00:08:29.905Z,21.97
2022-08-26T00:10:56.364Z,19.00
2022-08-26T00:13:26.355Z,21.90
2022-08-26T00:15:53.554Z,22.23
2022-08-26T00:18:22.139Z,20.55
2022-08-26T00:20:49.208Z,19.00
2022-08-26T00:23:15.685Z,21.73
2022-08-26T00:25:42.822Z,20.75
2022-08-26T00:28:10.949Z,22.40
2022-08-26T00:30:37.894Z,22.25
2022-08-26T00:33:06.201Z,25.40
2022-08-26T00:35:34.680Z,23.60
2022-08-26T00:38:03.397Z,23.00
2022-08-26T00:40:34.034Z,25.85
2022-08-26T00:43:01.549Z,23.15
2022-08-26T00:45:37.742Z,24.43
2022-08-26T00:48:05.916Z,25.25
2022-08-26T00:50:38.498Z,25.20
2022-08-26T00:53:24.075Z,25.20
2022-08-26T00:56:03.409Z,26.10
2022-08-26T00:58:32.880Z,23.87
2022-08-26T01:01:00.709Z,27.52
2022-08-26T01:03:30.889Z,24.65
2022-08-26T01:06:00.175Z,26.58
2022-08-26T01:08:27.198Z,25.55
2022-08-26T01:10:55.966Z,23.97
2022-08-26T01:13:23.082Z,23.20
2022-08-26T01:15:54.945Z,26.55
2022-08-26T01:18:21.689Z,24.55
2022-08-26T01:21:11.387Z,24.42
2022-08-26T01:23:42.493Z,24.50
2022-08-26T01:26:25.469Z,24.25
2022-08-26T01:28:56.582Z,22.27
2022-08-26T01:31:27.778Z,21.70
2022-08-26T01:34:17.673Z,24.98
2022-08-26T01:36:51.398Z,25.23
2022-08-26T01:39:18.582Z,26.52
2022-08-26T01:41:46.192Z,23.10
2022-08-26T01:44:19.583Z,24.65
2022-08-26T01:46:48.761Z,25.13
2022-08-26T01:49:17.997Z,28.27
2022-08-26T01:51:46.437Z,25.27
2022-08-26T01:54:14.106Z,27.13
2022-08-26T01:56:41.043Z,24.30
2022-08-26T01:59:11.265Z,24.38
2022-08-26T02:01:38.974Z,33.20
2022-08-26T02:04:17.696Z,24.75
2022-08-26T02:06:45.135Z,28.38
2022-08-26T02:09:12.485Z,26.77
2022-08-26T02:11:41.869Z,23.75
2022-08-26T02:14:15.586Z,26.60
2022-08-26T02:16:45.358Z,26.05
2022-08-26T02:19:16.850Z,27.15
2022-08-26T02:21:44.297Z,25.23
2022-08-26T02:24:17.402Z,23.33
2022-08-26T02:26:46.150Z,27.03
2022-08-26T02:29:24.811Z,24.23
2022-08-26T02:31:52.883Z,25.95
2022-08-26T02:34:31.138Z,27.20
2022-08-26T02:37:00.021Z,28.13
2022-08-26T02:39:26.754Z,28.77
2022-08-26T02:41:53.170Z,33.47
2022-08-26T02:44:19.584Z,26.60
2022-08-26T02:46:47.114Z,26.70
2022-08-26T02:49:14.869Z,28.75
2022-08-26T02:51:41.349Z,30.47
2022-08-26T02:54:09.774Z,32.10
2022-08-26T02:56:37.090Z,25.77
2022-08-26T02:59:04.142Z,24.58
2022-08-26T03:01:34.234Z,27.90
2022-08-26T03:04:04.220Z,27.87
2022-08-26T03:06:30.936Z,24.15
2022-08-26T03:08:57.618Z,24.08
2022-08-26T03:11:27.521Z,28.67
2022-08-26T03:13:56.119Z,23.30
2022-08-26T03:16:22.612Z,27.10
2022-08-26T03:18:52.236Z,27.75
2022-08-26T03:21:20.935Z,25.20
2022-08-26T03:23:47.600Z,27.20
2022-08-26T03:26:15.066Z,26.45
2022-08-26T03:29:01.617Z,30.63
2022-08-26T03:31:29.404Z,26.85
2022-08-26T03:33:59.649Z,25.75
2022-08-26T03:36:27.087Z,28.38
2022-08-26T03:38:53.705Z,27.63
2022-08-26T03:41:21.303Z,27.77
2022-08-26T03:43:50.668Z,29.95
2022-08-26T03:46:18.426Z,26.63
2022-08-26T03:48:45.765Z,30.45
2022-08-26T03:51:15.034Z,30.98
2022-08-26T03:53:45.737Z,24.83
2022-08-26T03:56:12.834Z,28.67
2022-08-26T03:58:39.549Z,28.85
2022-08-26T04:01:10.193Z,28.85
2022-08-26T04:03:55.498Z,30.13
2022-08-26T04:06:21.966Z,28.67
2022-08-26T04:08:48.637Z,31.55
2022-08-26T04:11:20.857Z,29.20
2022-08-26T04:13:49.015Z,28.80
2022-08-26T04:16:17.336Z,30.80
2022-08-26T04:18:46.600Z,26.20
2022-08-26T04:21:15.162Z,31.77
2022-08-26T04:23:47.075Z,29.98
2022-08-26T04:26:15.133Z,31.27
2022-08-26T04:28:41.674Z,31.08
2022-08-26T04:31:12.432Z,30.20
2022-08-26T04:33:41.919Z,29.88
2022-08-26T04:36:09.220Z,32.10
2022-08-26T04:38:36.016Z,29.60
2022-08-26T04:41:03.321Z,32.42
2022-08-26T04:43:31.957Z,28.30
2022-08-26T04:46:01.322Z,30.13
2022-08-26T04:48:32.659Z,34.95
2022-08-26T04:51:02.235Z,33.72
2022-08-26T04:53:28.699Z,32.67
2022-08-26T04:55:55.487Z,35.03
2022-08-26T04:58:24.491Z,35.38
2022-08-26T05:00:53.755Z,34.88
2022-08-26T05:03:21.291Z,31.60
2022-08-26T05:05:50.002Z,33.60
2022-08-26T05:08:19.271Z,40.00
2022-08-26T05:10:57.017Z,31.33
2022-08-26T05:13:26.358Z,33.50
2022-08-26T05:15:53.456Z,32.60
2022-08-26T05:18:23.173Z,33.17
2022-08-26T05:20:53.915Z,34.77
2022-08-26T05:23:22.677Z,35.28
2022-08-26T05:25:50.413Z,35.78
2022-08-26T05:28:18.966Z,30.98
2022-08-26T05:30:46.375Z,32.28
2022-08-26T05:33:13.273Z,30.60
2022-08-26T05:35:39.935Z,29.17
2022-08-26T05:38:12.378Z,28.20
2022-08-26T05:40:44.991Z,29.58
2022-08-26T05:43:13.341Z,29.63
2022-08-26T05:45:54.992Z,27.47
2022-08-26T05:48:22.677Z,29.15
2022-08-26T05:50:52.395Z,24.15
2022-08-26T05:53:20.735Z,25.77
2022-08-26T05:55:49.714Z,24.88
2022-08-26T05:58:20.129Z,22.57
2022-08-26T06:00:56.359Z,21.10
2022-08-26T06:03:22.907Z,22.23
2022-08-26T06:05:49.359Z,18.52
2022-08-26T06:08:15.897Z,18.58
2022-08-26T06:10:51.097Z,20.60
2022-08-26T06:13:21.743Z,17.73
2022-08-26T06:15:50.552Z,18.42
2022-08-26T06:18:21.193Z,19.50
2022-08-26T06:20:54.637Z,21.52
2022-08-26T06:23:44.670Z,17.43
2022-08-26T06:26:13.102Z,19.85
2022-08-26T06:28:39.534Z,18.95
2022-08-26T06:31:06.208Z,20.48
2022-08-26T06:33:33.360Z,17.30
2022-08-26T06:36:01.079Z,18.07
2022-08-26T06:38:27.690Z,21.42
2022-08-26T06:40:54.939Z,16.15
2022-08-26T06:43:24.136Z,19.00
2022-08-26T06:45:52.481Z,16.77
2022-08-26T06:48:21.444Z,16.77
2022-08-26T06:50:49.976Z,16.98
2022-08-26T06:53:17.869Z,16.95
2022-08-26T06:55:47.518Z,20.10
2022-08-26T06:58:19.628Z,16.75
2022-08-26T07:00:47.665Z,18.17
2022-08-26T07:03:15.414Z,18.92
2022-08-26T07:05:43.435Z,15.98
2022-08-26T07:08:11.567Z,16.52
2022-08-26T07:10:39.262Z,16.88
2022-08-26T07:13:08.055Z,18.40
2022-08-26T07:15:38.752Z,22.35
2022-08-26T07:18:09.525Z,20.00
2022-08-26T07:20:42.427Z,20.25
2022-08-26T07:23:11.931Z,16.33
2022-08-26T07:25:40.142Z,20.43
2022-08-26T07:28:07.314Z,19.77
2022-08-26T07:30:34.149Z,16.95
2022-08-26T07:33:00.606Z,21.20
2022-08-26T07:35:27.061Z,18.27
2022-08-26T07:37:56.914Z,20.13
2022-08-26T07:40:26.040Z,17.58
2022-08-26T07:42:53.041Z,17.02
2022-08-26T07:45:19.522Z,18.50
2022-08-26T07:47:45.978Z,17.02
2022-08-26T07:50:12.416Z,23.07
2022-08-26T07:52:39.277Z,17.30
2022-08-26T07:55:09.756Z,20.73
2022-08-26T07:57:36.636Z,16.27
2022-08-26T08:00:09.030Z,24.38
2022-08-26T08:02:35.578Z,20.27
2022-08-26T08:05:02.291Z,23.80
2022-08-26T08:07:44.145Z,18.13
2022-08-26T08:10:15.795Z,20.63
2022-08-26T08:12:43.115Z,17.38
2022-08-26T08:15:11.525Z,17.33
2022-08-26T08:17:38.000Z,20.75
2022-08-26T08:20:05.881Z,17.85
2022-08-26T08:22:32.484Z,16.10
2022-08-26T08:24:59.390Z,18.10
2022-08-26T08:27:26.093Z,18.77
2022-08-26T08:29:56.895Z,15.02
2022-08-26T08:32:23.755Z,21.48
2022-08-26T08:34:50.359Z,18.92
2022-08-26T08:37:16.878Z,19.98
2022-08-26T08:39:43.281Z,15.43
2022-08-26T08:42:34.878Z,20.33
2022-08-26T08:45:08.962Z,19.48
2022-08-26T08:47:39.489Z,21.80
2022-08-26T08:50:15.602Z,18.98
2022-08-26T08:52:46.611Z,22.03
2022-08-26T08:55:18.035Z,18.58
2022-08-26T08:58:07.419Z,21.83
2022-08-26T09:01:00.653Z,19.02
2022-08-26T09:03:53.289Z,22.02
2022-08-26T09:06:20.431Z,18.30
2022-08-26T09:08:50.488Z,22.88
2022-08-26T09:11:19.221Z,18.42
2022-08-26T09:13:52.329Z,19.17
2022-08-26T09:16:40.859Z,28.38
2022-08-26T09:19:39.855Z,22.97
2022-08-26T09:22:09.333Z,24.80
2022-08-26T09:24:42.144Z,18.90
2022-08-26T09:27:45.517Z,20.92
2022-08-26T09:30:23.152Z,22.02
2022-08-26T09:33:01.854Z,23.43
2022-08-26T09:35:35.879Z,21.45
2022-08-26T09:38:19.793Z,19.50
2022-08-26T09:40:59.698Z,22.55
2022-08-26T09:43:28.362Z,19.25
2022-08-26T09:46:14.640Z,18.57
2022-08-26T09:48:42.646Z,17.98
2022-08-26T09:51:24.634Z,19.13
2022-08-26T09:53:57.991Z,21.45
2022-08-26T09:56:27.607Z,20.25
2022-08-26T09:58:55.537Z,18.90
2022-08-26T10:01:35.314Z,21.27
2022-08-26T10:04:23.352Z,25.92
2022-08-26T10:07:02.673Z,25.52
2022-08-26T10:09:33.252Z,24.13
2022-08-26T10:12:05.460Z,21.33
2022-08-26T10:14:37.077Z,20.40
2022-08-26T10:17:28.190Z,21.50
2022-08-26T10:20:15.789Z,24.30
2022-08-26T10:22:58.571Z,21.23
2022-08-26T10:25:33.316Z,24.10
2022-08-26T10:28:06.890Z,17.88
2022-08-26T10:30:40.169Z,22.42
2022-08-26T10:33:13.104Z,21.85
2022-08-26T10:35:50.035Z,20.83
2022-08-26T10:38:21.627Z,24.50
2022-08-26T10:40:56.523Z,22.17
2022-08-26T10:43:25.938Z,22.58
2022-08-26T10:45:56.963Z,18.70
2022-08-26T10:48:41.915Z,19.33
2022-08-26T10:51:11.379Z,20.67
2022-08-26T10:53:56.219Z,21.88
2022-08-26T10:56:53.412Z,22.13
2022-08-26T10:59:51.601Z,20.02
2022-08-26T11:02:28.311Z,21.05
2022-08-26T11:05:04.425Z,19.00
2022-08-26T11:07:45.727Z,25.38
2022-08-26T11:10:32.114Z,19.83
2022-08-26T11:13:00.035Z,18.88
2022-08-26T11:15:28.041Z,22.00
2022-08-26T11:18:33.485Z,22.60
2022-08-26T11:21:00.701Z,23.83
2022-08-26T11:23:30.556Z,19.35
2022-08-26T11:25:57.335Z,25.35
2022-08-26T11:28:44.550Z,20.40
2022-08-26T11:31:40.306Z,19.60
2022-08-26T11:34:12.510Z,21.73
2022-08-26T11:36:49.038Z,23.77
2022-08-26T11:39:29.010Z,21.13
2022-08-26T11:42:01.198Z,24.02
2022-08-26T11:44:40.586Z,28.43
2022-08-26T11:47:11.482Z,16.02
2022-08-26T11:49:38.737Z,14.98
2022-08-26T11:52:32.301Z,14.50
2022-08-26T11:55:17.920Z,23.40
2022-08-26T11:57:49.312Z,20.13
2022-08-26T12:00:22.986Z,19.27
2022-08-26T12:02:51.276Z,17.55
2022-08-26T12:05:30.998Z,19.20
2022-08-26T12:08:02.955Z,25.75
2022-08-26T12:10:33.532Z,18.97
2022-08-26T12:13:01.660Z,14.48
2022-08-26T12:15:31.111Z,14.07
2022-08-26T12:18:00.320Z,14.77
2022-08-26T12:20:48.772Z,18.45
2022-08-26T12:23:36.904Z,17.70
2022-08-26T12:26:10.379Z,12.07
2022-08-26T12:28:53.088Z,25.10
2022-08-26T12:31:40.872Z,15.27
2022-08-26T12:34:17.603Z,14.05
2022-08-26T12:36:48.678Z,14.83
2022-08-26T12:39:26.236Z,13.88
2022-08-26T12:41:58.236Z,15.23
2022-08-26T12:45:06.575Z,9.90
2022-08-26T12:47:43.515Z,11.80
2022-08-26T12:50:18.772Z,11.53
2022-08-26T12:53:15.257Z,10.27
2022-08-26T12:55:41.671Z,10.80
2022-08-26T12:58:23.658Z,9.15
2022-08-26T13:00:57.521Z,11.20
2022-08-26T13:03:43.303Z,14.43
2022-08-26T13:06:15.892Z,11.80
2022-08-26T13:09:06.476Z,9.45
2022-08-26T13:11:34.787Z,12.63
2022-08-26T13:14:10.128Z,10.82
2022-08-26T13:16:38.381Z,13.90
2022-08-26T13:19:10.646Z,11.57
2022-08-26T13:21:58.006Z,12.60
2022-08-26T13:24:38.420Z,10.13
2022-08-26T13:27:06.321Z,12.32
2022-08-26T13:29:33.086Z,10.80
2022-08-26T13:32:00.156Z,10.95
2022-08-26T13:34:27.192Z,11.82
2022-08-26T13:36:56.246Z,11.20
2022-08-26T13:39:24.203Z,11.27
2022-08-26T13:41:51.730Z,12.57
2022-08-26T13:44:18.855Z,13.05
2022-08-26T13:49:17.178Z,13.93
2022-08-26T13:51:43.887Z,12.38
2022-08-26T13:54:10.466Z,13.67
2022-08-26T13:56:37.481Z,14.27
2022-08-26T13:59:05.590Z,12.85
2022-08-26T14:01:34.721Z,14.52
2022-08-26T14:04:02.621Z,13.32
2022-08-26T14:06:29.375Z,12.70
2022-08-26T14:08:56.009Z,12.30
2022-08-26T14:11:23.104Z,10.65
2022-08-26T14:13:50.345Z,10.77
2022-08-26T14:16:25.249Z,10.27
2022-08-26T14:18:52.084Z,11.47
2022-08-26T14:21:18.825Z,11.38
2022-08-26T14:23:45.365Z,9.40
2022-08-26T14:26:28.155Z,10.98
2022-08-26T14:28:57.857Z,8.85
2022-08-26T14:31:24.566Z,10.53
2022-08-26T14:33:51.137Z,12.90
2022-08-26T14:36:31.975Z,9.85
2022-08-26T14:39:02.490Z,11.98
2022-08-26T14:41:30.876Z,12.23
2022-08-26T14:44:03.188Z,11.77
2022-08-26T14:46:33.410Z,15.57
2022-08-26T14:49:02.106Z,12.77
2022-08-26T14:51:30.091Z,12.65
2022-08-26T14:54:14.809Z,13.23
2022-08-26T14:56:54.065Z,10.33
2022-08-26T14:59:26.458Z,14.88
2022-08-26T15:01:54.360Z,12.82
2022-08-26T15:04:21.812Z,24.17
2022-08-26T15:06:48.822Z,22.17
2022-08-26T15:09:15.850Z,21.00
2022-08-26T15:11:42.378Z,13.00
2022-08-26T15:14:18.992Z,13.73
2022-08-26T15:16:48.258Z,13.90
2022-08-26T15:19:15.975Z,14.25
2022-08-26T15:21:43.325Z,13.47
2022-08-26T15:24:09.841Z,13.18
2022-08-26T15:26:36.296Z,11.55
2022-08-26T15:29:05.055Z,11.25
2022-08-26T15:31:32.941Z,13.63
2022-08-26T15:34:02.679Z,13.30
2022-08-26T15:36:30.928Z,13.25
2022-08-26T15:38:59.111Z,17.02
2022-08-26T15:41:26.177Z,12.95
2022-08-26T15:43:52.668Z,11.48
2022-08-26T15:46:20.164Z,11.40
2022-08-26T15:48:46.685Z,13.52
2022-08-26T15:51:27.747Z,13.65
2022-08-26T15:53:58.417Z,12.90
2022-08-26T15:56:28.233Z,12.90
2022-08-26T15:58:56.300Z,11.93
2022-08-26T16:01:27.355Z,15.90
2022-08-26T16:03:55.631Z,11.93
2022-08-26T16:06:27.451Z,12.93
2022-08-26T16:08:56.099Z,13.00
2022-08-26T16:11:23.588Z,12.73
2022-08-26T16:13:50.112Z,12.85
2022-08-26T16:16:17.368Z,13.27
2022-08-26T16:18:44.845Z,14.45
2022-08-26T16:21:16.312Z,13.70
2022-08-26T16:23:45.190Z,14.07
2022-08-26T16:26:15.862Z,16.55
2022-08-26T16:28:43.574Z,13.25
2022-08-26T16:31:10.856Z,17.80
2022-08-26T16:33:40.657Z,15.25
2022-08-26T16:36:08.315Z,16.03
2022-08-26T16:38:35.507Z,15.30
2022-08-26T16:41:02.223Z,14.63
2022-08-26T16:43:28.999Z,14.93
2022-08-26T16:45:56.043Z,15.63
2022-08-26T16:48:23.555Z,17.73
2022-08-26T16:50:50.878Z,16.15
2022-08-26T16:53:17.432Z,15.30
2022-08-26T16:55:48.669Z,14.18
2022-08-26T16:58:15.410Z,13.80
2022-08-26T17:00:42.628Z,15.43
2022-08-26T17:03:09.980Z,14.43
2022-08-26T17:05:36.934Z,15.48
2022-08-26T17:08:03.888Z,14.73
2022-08-26T17:10:30.806Z,16.48
2022-08-26T17:12:57.378Z,17.47
2022-08-26T17:15:24.348Z,19.15
2022-08-26T17:17:52.737Z,19.42
2022-08-26T17:20:21.192Z,14.55
2022-08-26T17:22:49.564Z,15.60
2022-08-26T17:25:35.546Z,15.03
2022-08-26T17:28:01.996Z,15.30
2022-08-26T17:30:30.778Z,16.27
2022-08-26T17:32:57.848Z,18.42
2022-08-26T17:35:24.652Z,14.32
2022-08-26T17:37:51.746Z,14.60
2022-08-26T17:40:21.500Z,16.45
2022-08-26T17:42:48.698Z,18.85
2022-08-26T17:45:15.757Z,16.33
2022-08-26T17:47:42.327Z,15.60
2022-08-26T17:50:11.529Z,18.63
2022-08-26T17:52:39.425Z,15.38
2022-08-26T17:55:11.957Z,16.25
2022-08-26T17:57:40.804Z,17.83
2022-08-26T18:00:14.022Z,17.48
2022-08-26T18:02:40.923Z,17.03
2022-08-26T18:05:08.733Z,18.60
2022-08-26T18:07:41.378Z,22.02
2022-08-26T18:10:13.512Z,17.60
2022-08-26T18:12:40.911Z,17.48
2022-08-26T18:15:07.918Z,17.70
2022-08-26T18:17:34.494Z,18.48
2022-08-26T18:20:01.078Z,19.60
2022-08-26T18:22:27.644Z,20.02
2022-08-26T18:24:58.900Z,20.30
2022-08-26T18:27:25.535Z,23.50
2022-08-26T18:29:52.044Z,19.15
2022-08-26T18:32:18.485Z,20.42
2022-08-26T18:34:45.026Z,19.55
2022-08-26T18:39:39.741Z,21.93
2022-08-26T18:42:06.591Z,20.85
2022-08-26T18:44:33.266Z,19.92
2022-08-26T18:46:59.715Z,22.02
2022-08-26T18:49:26.149Z,21.25
2022-08-26T18:51:52.601Z,21.33
2022-08-26T18:56:50.977Z,21.70
2022-08-26T18:59:18.263Z,20.45
2022-08-26T19:01:45.360Z,22.65
2022-08-26T19:04:15.489Z,25.13
2022-08-26T19:06:42.856Z,23.13
2022-08-26T19:09:11.925Z,21.42
2022-08-26T19:11:43.192Z,20.33
2022-08-26T19:14:13.619Z,18.55
2022-08-26T19:16:42.869Z,20.27
2022-08-26T19:19:09.851Z,22.10
2022-08-26T19:21:37.806Z,21.63
2022-08-26T19:24:15.110Z,22.45
2022-08-26T19:26:45.140Z,20.98
2022-08-26T19:29:12.544Z,20.27
2022-08-26T19:31:39.101Z,24.45
2022-08-26T19:34:05.753Z,20.90
2022-08-26T19:36:32.946Z,22.27
2022-08-26T19:39:00.277Z,23.85
2022-08-26T19:41:36.956Z,26.17
2022-08-26T19:44:07.137Z,19.85
2022-08-26T19:46:33.655Z,24.02
2022-08-26T19:49:00.187Z,23.38
2022-08-26T19:51:30.464Z,25.02
2022-08-26T19:53:58.904Z,23.33
2022-08-26T19:56:27.993Z,20.85
2022-08-26T19:58:55.496Z,23.63
2022-08-26T20:01:23.138Z,22.30
2022-08-26T20:03:49.907Z,23.40
2022-08-26T20:06:16.872Z,21.23
2022-08-26T20:08:44.366Z,23.75
2022-08-26T20:11:14.754Z,21.73
2022-08-26T20:13:41.914Z,24.30
2022-08-26T20:16:10.365Z,19.48
2022-08-26T20:18:55.533Z,20.80
2022-08-26T20:21:27.656Z,18.85
2022-08-26T20:24:16.119Z,21.50
2022-08-26T20:26:44.878Z,22.33
2022-08-26T20:29:13.720Z,23.02
2022-08-26T20:31:41.351Z,23.63
2022-08-26T20:34:08.172Z,21.27
2022-08-26T20:36:34.891Z,22.20
2022-08-26T20:39:01.351Z,21.70
2022-08-26T20:41:28.916Z,24.38
2022-08-26T20:43:55.900Z,22.03
2022-08-26T20:46:24.883Z,23.10
2022-08-26T20:48:53.111Z,24.27
2022-08-26T20:51:20.757Z,24.60
2022-08-26T20:53:47.564Z,20.80
2022-08-26T20:56:15.556Z,22.37
2022-08-26T20:58:42.646Z,19.88
2022-08-26T21:01:18.336Z,21.35
2022-08-26T21:03:45.810Z,21.70
2022-08-26T21:06:12.783Z,24.50
2022-08-26T21:08:42.632Z,22.40
2022-08-26T21:11:10.061Z,21.30
2022-08-26T21:13:54.449Z,21.10
2022-08-26T21:16:24.457Z,19.00
2022-08-26T21:18:51.163Z,22.23
2022-08-26T21:21:17.707Z,26.97
2022-08-26T21:23:44.455Z,20.75
2022-08-26T21:26:13.020Z,23.60
2022-08-26T21:28:41.873Z,19.83
2022-08-26T21:31:11.566Z,22.13
2022-08-26T21:33:38.840Z,20.97
2022-08-26T21:36:06.673Z,23.00
2022-08-26T21:38:33.809Z,20.30
2022-08-26T21:41:05.647Z,22.38
2022-08-26T21:43:35.429Z,18.90
2022-08-26T21:46:11.663Z,19.63
2022-08-26T21:48:39.726Z,20.60
2022-08-26T21:51:06.827Z,18.52
2022-08-26T21:53:33.473Z,17.63
2022-08-26T21:56:04.363Z,19.42
2022-08-26T21:58:30.953Z,22.37
2022-08-26T22:00:57.545Z,18.77
2022-08-26T22:03:24.127Z,18.73
2022-08-26T22:05:51.193Z,21.95
2022-08-26T22:08:22.907Z,21.00
2022-08-26T22:10:55.041Z,19.43
2022-08-26T22:13:28.869Z,22.17
2022-08-26T22:15:57.760Z,19.75
2022-08-26T22:18:25.959Z,22.40
2022-08-26T22:20:54.023Z,21.45
2022-08-26T22:23:20.922Z,23.80
2022-08-26T22:25:49.856Z,23.33
2022-08-26T22:28:17.385Z,21.83
2022-08-26T22:30:45.612Z,22.92
2022-08-26T22:33:13.152Z,21.63
2022-08-26T22:35:41.957Z,20.27
2022-08-26T22:38:09.325Z,23.58
2022-08-26T22:40:36.614Z,24.17
2022-08-26T22:43:04.509Z,21.08
2022-08-26T22:45:32.313Z,22.58
2022-08-26T22:48:04.989Z,22.67
2022-08-26T22:50:32.237Z,25.73
2022-08-26T22:52:58.685Z,22.40
2022-08-26T22:55:25.134Z,23.75
2022-08-26T22:57:51.642Z,24.17
2022-08-26T23:00:18.400Z,24.67
2022-08-26T23:02:45.369Z,28.42
2022-08-26T23:05:12.205Z,26.25
2022-08-26T23:07:38.698Z,26.70
2022-08-26T23:10:07.665Z,22.17
2022-08-26T23:12:37.901Z,22.77
2022-08-26T23:15:09.935Z,26.17
2022-08-26T23:17:36.987Z,24.17
2022-08-26T23:20:06.554Z,21.73
2022-08-26T23:22:33.076Z,24.05
2022-08-26T23:25:02.601Z,23.73
2022-08-26T23:27:36.852Z,22.13
2022-08-26T23:30:06.882Z,25.20
2022-08-26T23:32:33.361Z,26.33
2022-08-26T23:34:59.921Z,25.80
2022-08-26T23:37:31.925Z,29.40
2022-08-26T23:40:01.898Z,27.88
2022-08-26T23:42:29.817Z,32.25
2022-08-26T23:44:56.630Z,29.50
2022-08-26T23:47:23.123Z,26.88
2022-08-26T23:49:49.596Z,27.27
2022-08-26T23:52:34.643Z,29.98
2022-08-26T23:55:01.098Z,29.70
2022-08-26T23:57:27.569Z,25.38
2022-08-26T23:59:54.112Z,28.92
